UTA279 USTR-USSS
Flight info
| Callsign | UTA279 |
|---|---|
| Flight time | 0h 39m |
| Altitude | 22000 |
| Route | BEPAR1T BEPAR T448 SOPUS SOPUS6W |
| Aircraft | B733/M-SDE2E3FHIRW/S |
Departure
| Time | 2026-04-27 16:52 |
|---|---|
| Airport | Roshchino International Airport (USTR) |
Arrival
| Time | 2026-04-27 17:31 |
|---|---|
| Airport | Koltsovo Airport (USSS) |
| Time | Latitude | Longitude | Altitude | Speed | Heading |
|---|---|---|---|---|---|
| 2026-04-27 16:37 | 57.18055 | 65.34853 | 383 ft | 0 kts | 42° |
| 2026-04-27 16:44 | 57.18048 | 65.34842 | 383 ft | 2 kts | 42° |
| 2026-04-27 16:44 | 57.18037 | 65.34823 | 383 ft | 2 kts | 42° |
| 2026-04-27 16:44 | 57.18026 | 65.34804 | 383 ft | 2 kts | 42° |
| 2026-04-27 16:45 | 57.18015 | 65.34785 | 383 ft | 2 kts | 47° |
| 2026-04-27 16:45 | 57.18009 | 65.34760 | 383 ft | 2 kts | 83° |
| 2026-04-27 16:45 | 57.18010 | 65.34733 | 383 ft | 2 kts | 113° |
| 2026-04-27 16:45 | 57.18015 | 65.34718 | 383 ft | 0 kts | 132° |
| 2026-04-27 16:46 | 57.18020 | 65.34708 | 383 ft | 0 kts | 135° |
| 2026-04-27 16:47 | 57.18013 | 65.34721 | 383 ft | 3 kts | 134° |
| 2026-04-27 16:48 | 57.17987 | 65.34771 | 383 ft | 7 kts | 134° |
| 2026-04-27 16:48 | 57.17938 | 65.34861 | 383 ft | 12 kts | 134° |
| 2026-04-27 16:48 | 57.17868 | 65.34991 | 383 ft | 16 kts | 134° |
| 2026-04-27 16:49 | 57.17646 | 65.35404 | 383 ft | 27 kts | 134° |
| 2026-04-27 16:49 | 57.17512 | 65.35654 | 383 ft | 20 kts | 134° |
| 2026-04-27 16:49 | 57.17437 | 65.35704 | 383 ft | 11 kts | 183° |
| 2026-04-27 16:49 | 57.17364 | 65.35693 | 383 ft | 4 kts | 195° |
| 2026-04-27 16:50 | 57.17336 | 65.35644 | 383 ft | 7 kts | 225° |
| 2026-04-27 16:50 | 57.17297 | 65.35551 | 383 ft | 10 kts | 253° |
| 2026-04-27 16:50 | 57.17323 | 65.35449 | 383 ft | 0 kts | 315° |
| 2026-04-27 16:50 | 57.17331 | 65.35435 | 383 ft | 13 kts | 315° |
| 2026-04-27 16:51 | 57.17555 | 65.35017 | 383 ft | 65 kts | 314° |
| 2026-04-27 16:51 | 57.17954 | 65.34273 | 383 ft | 108 kts | 314° |
| 2026-04-27 16:51 | 57.18605 | 65.33061 | 385 ft | 155 kts | 313° |
| 2026-04-27 16:51 | 57.19410 | 65.31560 | 712 ft | 165 kts | 313° |
| 2026-04-27 16:52 | 57.20264 | 65.30115 | 1181 ft | 169 kts | 315° |
| 2026-04-27 16:52 | 57.21127 | 65.28654 | 1614 ft | 174 kts | 307° |
| 2026-04-27 16:52 | 57.22001 | 65.26943 | 1820 ft | 195 kts | 307° |
| 2026-04-27 16:52 | 57.22741 | 65.24760 | 2006 ft | 206 kts | 274° |
| 2026-04-27 16:53 | 57.22662 | 65.22156 | 2395 ft | 210 kts | 254° |
| 2026-04-27 16:53 | 57.22428 | 65.19473 | 3071 ft | 217 kts | 256° |
| 2026-04-27 16:53 | 57.22186 | 65.16615 | 3577 ft | 234 kts | 257° |
| 2026-04-27 16:53 | 57.21934 | 65.13620 | 4277 ft | 241 kts | 257° |
| 2026-04-27 16:54 | 57.21677 | 65.10561 | 5102 ft | 243 kts | 257° |
| 2026-04-27 16:54 | 57.21414 | 65.07455 | 5940 ft | 245 kts | 258° |
| 2026-04-27 16:54 | 57.21149 | 65.04332 | 6670 ft | 251 kts | 258° |
| 2026-04-27 16:54 | 57.20867 | 65.01047 | 7065 ft | 271 kts | 258° |
| 2026-04-27 16:55 | 57.20568 | 64.97559 | 7734 ft | 280 kts | 258° |
| 2026-04-27 16:55 | 57.20259 | 64.93961 | 8507 ft | 285 kts | 258° |
| 2026-04-27 16:55 | 57.19942 | 64.90286 | 9245 ft | 291 kts | 258° |
| 2026-04-27 16:55 | 57.19624 | 64.86615 | 10003 ft | 297 kts | 258° |
| 2026-04-27 16:56 | 57.19293 | 64.82803 | 10810 ft | 300 kts | 258° |
| 2026-04-27 16:56 | 57.18853 | 64.79082 | 11613 ft | 301 kts | 253° |
| 2026-04-27 16:56 | 57.18322 | 64.75308 | 12432 ft | 304 kts | 253° |
| 2026-04-27 16:56 | 57.17790 | 64.71503 | 13209 ft | 308 kts | 253° |
| 2026-04-27 16:57 | 57.17262 | 64.67715 | 13987 ft | 310 kts | 254° |
| 2026-04-27 16:57 | 57.16723 | 64.63844 | 14763 ft | 314 kts | 254° |
| 2026-04-27 16:57 | 57.16180 | 64.59952 | 15545 ft | 316 kts | 254° |
| 2026-04-27 16:57 | 57.15625 | 64.55974 | 16331 ft | 319 kts | 255° |
| 2026-04-27 16:58 | 57.15072 | 64.52020 | 17063 ft | 322 kts | 255° |
| 2026-04-27 16:58 | 57.14607 | 64.48006 | 17774 ft | 325 kts | 263° |
| 2026-04-27 16:58 | 57.14462 | 64.43811 | 18448 ft | 329 kts | 266° |
| 2026-04-27 16:58 | 57.14347 | 64.39625 | 19172 ft | 330 kts | 266° |
| 2026-04-27 16:59 | 57.14223 | 64.35381 | 19854 ft | 333 kts | 266° |
| 2026-04-27 16:59 | 57.14095 | 64.31114 | 20543 ft | 335 kts | 265° |
| 2026-04-27 16:59 | 57.13963 | 64.26816 | 20895 ft | 338 kts | 266° |
| 2026-04-27 16:59 | 57.13828 | 64.22478 | 21162 ft | 337 kts | 266° |
| 2026-04-27 17:00 | 57.13599 | 64.15276 | 21596 ft | 339 kts | 266° |
| 2026-04-27 17:00 | 57.13409 | 64.09413 | 21944 ft | 342 kts | 266° |
| 2026-04-27 17:00 | 57.13267 | 64.05072 | 22118 ft | 341 kts | 266° |
| 2026-04-27 17:01 | 57.13123 | 64.00720 | 22159 ft | 344 kts | 266° |
| 2026-04-27 17:01 | 57.12973 | 63.96270 | 22161 ft | 343 kts | 266° |
| 2026-04-27 17:01 | 57.12825 | 63.91902 | 22148 ft | 341 kts | 266° |
| 2026-04-27 17:01 | 57.12675 | 63.87499 | 22130 ft | 342 kts | 266° |
| 2026-04-27 17:02 | 57.12519 | 63.83017 | 22097 ft | 358 kts | 266° |
| 2026-04-27 17:02 | 57.12359 | 63.78429 | 22107 ft | 365 kts | 266° |
| 2026-04-27 17:02 | 57.12247 | 63.73719 | 22127 ft | 370 kts | 270° |
| 2026-04-27 17:02 | 57.12297 | 63.68965 | 22158 ft | 369 kts | 271° |
| 2026-04-27 17:03 | 57.12364 | 63.64297 | 22163 ft | 367 kts | 271° |
| 2026-04-27 17:03 | 57.12431 | 63.59569 | 22157 ft | 367 kts | 271° |
| 2026-04-27 17:03 | 57.12497 | 63.54828 | 22151 ft | 367 kts | 271° |
| 2026-04-27 17:03 | 57.12559 | 63.50153 | 22149 ft | 368 kts | 271° |
| 2026-04-27 17:04 | 57.12621 | 63.45437 | 22154 ft | 368 kts | 271° |
| 2026-04-27 17:04 | 57.12682 | 63.40681 | 22150 ft | 368 kts | 271° |
| 2026-04-27 17:04 | 57.12740 | 63.35977 | 22157 ft | 368 kts | 271° |
| 2026-04-27 17:04 | 57.12797 | 63.31265 | 22124 ft | 368 kts | 270° |
| 2026-04-27 17:05 | 57.12852 | 63.26580 | 22147 ft | 368 kts | 270° |
| 2026-04-27 17:05 | 57.12905 | 63.21840 | 22144 ft | 368 kts | 270° |
| 2026-04-27 17:05 | 57.12956 | 63.17120 | 22148 ft | 368 kts | 270° |
| 2026-04-27 17:05 | 57.12990 | 63.13949 | 22144 ft | 368 kts | 270° |
| 2026-04-27 17:06 | 57.13054 | 63.07693 | 22143 ft | 368 kts | 270° |
| 2026-04-27 17:06 | 57.13100 | 63.02924 | 22134 ft | 368 kts | 270° |
| 2026-04-27 17:06 | 57.13145 | 62.98224 | 22139 ft | 368 kts | 270° |
| 2026-04-27 17:06 | 57.13187 | 62.93500 | 22145 ft | 369 kts | 270° |
| 2026-04-27 17:07 | 57.13228 | 62.88755 | 22138 ft | 369 kts | 270° |
| 2026-04-27 17:07 | 57.13267 | 62.84060 | 22144 ft | 368 kts | 270° |
| 2026-04-27 17:07 | 57.13305 | 62.79279 | 22154 ft | 368 kts | 270° |
| 2026-04-27 17:07 | 57.13340 | 62.74591 | 22166 ft | 368 kts | 270° |
| 2026-04-27 17:08 | 57.13374 | 62.69847 | 22165 ft | 367 kts | 270° |
| 2026-04-27 17:08 | 57.13405 | 62.65155 | 22147 ft | 367 kts | 270° |
| 2026-04-27 17:08 | 57.13435 | 62.60437 | 22149 ft | 367 kts | 270° |
| 2026-04-27 17:08 | 57.13464 | 62.55679 | 22151 ft | 368 kts | 270° |
| 2026-04-27 17:09 | 57.13491 | 62.50960 | 22143 ft | 368 kts | 270° |
| 2026-04-27 17:09 | 57.13515 | 62.46271 | 22153 ft | 368 kts | 270° |
| 2026-04-27 17:09 | 57.13539 | 62.41497 | 22154 ft | 367 kts | 270° |
| 2026-04-27 17:09 | 57.13560 | 62.36798 | 22142 ft | 369 kts | 270° |
| 2026-04-27 17:10 | 57.13579 | 62.32108 | 22129 ft | 368 kts | 270° |
| 2026-04-27 17:10 | 57.13597 | 62.27365 | 22139 ft | 367 kts | 269° |
| 2026-04-27 17:10 | 57.13613 | 62.22665 | 22140 ft | 369 kts | 269° |
| 2026-04-27 17:10 | 57.13627 | 62.17927 | 22142 ft | 369 kts | 269° |
| 2026-04-27 17:11 | 57.13640 | 62.13172 | 22139 ft | 368 kts | 269° |
| 2026-04-27 17:11 | 57.13659 | 62.03769 | 21765 ft | 362 kts | 269° |
| 2026-04-27 17:11 | 57.13502 | 61.99188 | 21131 ft | 356 kts | 257° |
| 2026-04-27 17:12 | 57.12217 | 61.90580 | 20047 ft | 343 kts | 254° |
| 2026-04-27 17:12 | 57.11594 | 61.86365 | 19579 ft | 344 kts | 255° |
| 2026-04-27 17:12 | 57.10956 | 61.81987 | 19112 ft | 355 kts | 255° |
| 2026-04-27 17:13 | 57.10327 | 61.77634 | 18603 ft | 348 kts | 255° |
| 2026-04-27 17:13 | 57.09714 | 61.73386 | 18105 ft | 341 kts | 255° |
| 2026-04-27 17:13 | 57.09111 | 61.69203 | 17634 ft | 335 kts | 255° |
| 2026-04-27 17:13 | 57.08524 | 61.65131 | 17162 ft | 333 kts | 255° |
| 2026-04-27 17:14 | 57.07915 | 61.60928 | 16694 ft | 345 kts | 254° |
| 2026-04-27 17:14 | 57.07304 | 61.56707 | 16207 ft | 339 kts | 254° |
| 2026-04-27 17:14 | 57.06711 | 61.52629 | 15731 ft | 332 kts | 254° |
| 2026-04-27 17:14 | 57.06119 | 61.48558 | 15477 ft | 324 kts | 254° |
| 2026-04-27 17:15 | 57.05545 | 61.44632 | 15370 ft | 311 kts | 254° |
| 2026-04-27 17:15 | 57.05013 | 61.40933 | 15402 ft | 291 kts | 256° |
| 2026-04-27 17:15 | 57.05034 | 61.37331 | 15399 ft | 277 kts | 285° |
| 2026-04-27 17:15 | 57.05945 | 61.34248 | 15131 ft | 277 kts | 307° |
| 2026-04-27 17:16 | 57.07121 | 61.31492 | 14767 ft | 272 kts | 291° |
| 2026-04-27 17:16 | 57.07465 | 61.27991 | 14711 ft | 291 kts | 260° |
| 2026-04-27 17:16 | 57.06788 | 61.24311 | 14668 ft | 319 kts | 244° |
| 2026-04-27 17:16 | 57.05928 | 61.20410 | 14533 ft | 330 kts | 249° |
| 2026-04-27 17:17 | 57.05224 | 61.16397 | 14409 ft | 330 kts | 252° |
| 2026-04-27 17:17 | 57.04607 | 61.12326 | 14269 ft | 330 kts | 253° |
| 2026-04-27 17:17 | 57.04047 | 61.08299 | 14133 ft | 327 kts | 254° |
| 2026-04-27 17:18 | 57.02991 | 61.00197 | 13860 ft | 325 kts | 254° |
| 2026-04-27 17:18 | 57.02481 | 60.96177 | 13713 ft | 325 kts | 254° |
| 2026-04-27 17:18 | 57.01970 | 60.92130 | 13466 ft | 324 kts | 254° |
| 2026-04-27 17:18 | 57.01468 | 60.88137 | 13318 ft | 322 kts | 254° |
| 2026-04-27 17:19 | 57.00961 | 60.84106 | 13134 ft | 322 kts | 254° |
| 2026-04-27 17:19 | 57.00465 | 60.80162 | 12933 ft | 320 kts | 254° |
| 2026-04-27 17:19 | 56.99963 | 60.76189 | 12744 ft | 321 kts | 254° |
| 2026-04-27 17:19 | 56.99460 | 60.72213 | 12552 ft | 321 kts | 254° |
| 2026-04-27 17:20 | 56.99065 | 60.68198 | 12344 ft | 322 kts | 264° |
| 2026-04-27 17:20 | 56.99124 | 60.64095 | 12109 ft | 323 kts | 270° |
| 2026-04-27 17:20 | 56.99234 | 60.60017 | 11557 ft | 321 kts | 269° |
| 2026-04-27 17:20 | 56.99340 | 60.55965 | 11013 ft | 318 kts | 269° |
| 2026-04-27 17:21 | 56.99441 | 60.51982 | 10353 ft | 315 kts | 269° |
| 2026-04-27 17:21 | 56.99542 | 60.47992 | 9675 ft | 313 kts | 269° |
| 2026-04-27 17:21 | 56.99639 | 60.44054 | 9201 ft | 304 kts | 269° |
| 2026-04-27 17:21 | 56.99733 | 60.40294 | 9023 ft | 286 kts | 269° |
| 2026-04-27 17:22 | 56.99820 | 60.36790 | 8980 ft | 267 kts | 269° |
| 2026-04-27 17:22 | 56.99828 | 60.33538 | 8894 ft | 248 kts | 256° |
| 2026-04-27 17:22 | 56.99283 | 60.30665 | 8635 ft | 234 kts | 237° |
| 2026-04-27 17:22 | 56.98472 | 60.28121 | 8301 ft | 229 kts | 228° |
| 2026-04-27 17:23 | 56.97187 | 60.26574 | 8044 ft | 217 kts | 190° |
| 2026-04-27 17:23 | 56.95708 | 60.26911 | 7627 ft | 224 kts | 156° |
| 2026-04-27 17:23 | 56.94286 | 60.28104 | 7221 ft | 224 kts | 162° |
| 2026-04-27 17:23 | 56.92844 | 60.29145 | 6834 ft | 224 kts | 161° |
| 2026-04-27 17:24 | 56.91414 | 60.30196 | 6503 ft | 221 kts | 161° |
| 2026-04-27 17:24 | 56.90001 | 60.31244 | 6199 ft | 219 kts | 161° |
| 2026-04-27 17:24 | 56.88586 | 60.32292 | 5848 ft | 219 kts | 161° |
| 2026-04-27 17:24 | 56.87191 | 60.33329 | 5537 ft | 217 kts | 161° |
| 2026-04-27 17:25 | 56.85801 | 60.34366 | 5227 ft | 215 kts | 161° |
| 2026-04-27 17:25 | 56.84424 | 60.35396 | 5023 ft | 208 kts | 161° |
| 2026-04-27 17:25 | 56.83122 | 60.36372 | 4760 ft | 201 kts | 161° |
| 2026-04-27 17:25 | 56.81879 | 60.37526 | 4339 ft | 204 kts | 146° |
| 2026-04-27 17:26 | 56.80830 | 60.39180 | 4149 ft | 194 kts | 144° |
| 2026-04-27 17:26 | 56.79833 | 60.40747 | 3950 ft | 187 kts | 144° |
| 2026-04-27 17:26 | 56.78862 | 60.42276 | 3693 ft | 184 kts | 144° |
| 2026-04-27 17:26 | 56.77897 | 60.43796 | 3419 ft | 182 kts | 144° |
| 2026-04-27 17:27 | 56.76941 | 60.45301 | 3125 ft | 182 kts | 144° |
| 2026-04-27 17:27 | 56.76002 | 60.46809 | 2902 ft | 180 kts | 140° |
| 2026-04-27 17:27 | 56.75389 | 60.48845 | 2783 ft | 197 kts | 105° |
| 2026-04-27 17:27 | 56.75266 | 60.51378 | 2672 ft | 199 kts | 101° |
| 2026-04-27 17:28 | 56.75170 | 60.53825 | 2571 ft | 189 kts | 101° |
| 2026-04-27 17:28 | 56.75079 | 60.56145 | 2432 ft | 178 kts | 101° |
| 2026-04-27 17:28 | 56.74905 | 60.60571 | 2328 ft | 175 kts | 101° |
| 2026-04-27 17:29 | 56.74819 | 60.62795 | 2356 ft | 174 kts | 101° |
| 2026-04-27 17:29 | 56.74743 | 60.64900 | 2282 ft | 165 kts | 101° |
| 2026-04-27 17:29 | 56.74663 | 60.66947 | 2061 ft | 153 kts | 102° |
| 2026-04-27 17:29 | 56.74595 | 60.68829 | 1793 ft | 146 kts | 103° |
| 2026-04-27 17:30 | 56.74516 | 60.70645 | 1591 ft | 142 kts | 102° |
| 2026-04-27 17:30 | 56.74371 | 60.74270 | 1178 ft | 144 kts | 97° |
| 2026-04-27 17:30 | 56.74313 | 60.76038 | 994 ft | 138 kts | 99° |
| 2026-04-27 17:31 | 56.74238 | 60.77757 | 834 ft | 136 kts | 97° |
| 2026-04-27 17:31 | 56.74173 | 60.79386 | 775 ft | 112 kts | 95° |
| 2026-04-27 17:31 | 56.74132 | 60.80345 | 775 ft | 16 kts | 97° |
| 2026-04-27 17:31 | 56.74131 | 60.80507 | 775 ft | 9 kts | 87° |
| 2026-04-27 17:32 | 56.74162 | 60.80560 | 775 ft | 7 kts | 8° |
| 2026-04-27 17:32 | 56.74280 | 60.80591 | 775 ft | 10 kts | 8° |
| 2026-04-27 17:32 | 56.74361 | 60.80612 | 775 ft | 12 kts | 8° |
| 2026-04-27 17:33 | 56.74453 | 60.80636 | 775 ft | 13 kts | 8° |
| 2026-04-27 17:33 | 56.74550 | 60.80646 | 775 ft | 14 kts | 359° |
| 2026-04-27 17:33 | 56.74606 | 60.80645 | 775 ft | 3 kts | 359° |
| 2026-04-27 17:33 | 56.74635 | 60.80640 | 775 ft | 4 kts | 345° |
| 2026-04-27 17:34 | 56.74659 | 60.80593 | 775 ft | 5 kts | 282° |
| 2026-04-27 17:34 | 56.74661 | 60.80497 | 775 ft | 9 kts | 271° |
| 2026-04-27 17:34 | 56.74661 | 60.80347 | 775 ft | 14 kts | 270° |
| 2026-04-27 17:34 | 56.74661 | 60.80142 | 775 ft | 18 kts | 270° |
| 2026-04-27 17:35 | 56.74661 | 60.79886 | 775 ft | 22 kts | 270° |
| 2026-04-27 17:35 | 56.74661 | 60.79576 | 775 ft | 26 kts | 270° |
| 2026-04-27 17:35 | 56.74661 | 60.79282 | 775 ft | 12 kts | 271° |
| 2026-04-27 17:35 | 56.74705 | 60.79188 | 775 ft | 11 kts | 2° |
| 2026-04-27 17:36 | 56.74735 | 60.79308 | 775 ft | 12 kts | 92° |
| 2026-04-27 17:36 | 56.74733 | 60.79466 | 775 ft | 12 kts | 90° |
| 2026-04-27 17:36 | 56.74734 | 60.79500 | 775 ft | 0 kts | 88° |
| 2026-04-27 17:36 | 56.74735 | 60.79520 | 775 ft | 2 kts | 88° |
| 2026-04-27 17:37 | 56.74737 | 60.79551 | 775 ft | 2 kts | 68° |
| 2026-04-27 17:37 | 56.74757 | 60.79568 | 775 ft | 3 kts | 8° |
| 2026-04-27 17:37 | 56.74788 | 60.79572 | 775 ft | 4 kts | 0° |
| 2026-04-27 17:37 | 56.74793 | 60.79572 | 775 ft | 0 kts | 0° |